sensor_id;sensor_type;location;lat;lon;timestamp;P1;durP1;ratioP1;P2;durP2;ratioP2
57085;SDS011;42964;42.910;23.792;2024-01-11T00:01:08;116.47;;;51.15;;
57085;SDS011;42964;42.910;23.792;2024-01-11T00:06:08;101.75;;;47.58;;
57085;SDS011;42964;42.910;23.792;2024-01-11T00:11:07;132.52;;;60.65;;
57085;SDS011;42964;42.910;23.792;2024-01-11T00:16:06;97.25;;;48.40;;
57085;SDS011;42964;42.910;23.792;2024-01-11T00:21:05;82.47;;;38.25;;
57085;SDS011;42964;42.910;23.792;2024-01-11T00:26:04;68.40;;;35.42;;
57085;SDS011;42964;42.910;23.792;2024-01-11T00:31:03;71.93;;;34.95;;
57085;SDS011;42964;42.910;23.792;2024-01-11T00:36:03;96.07;;;46.58;;
57085;SDS011;42964;42.910;23.792;2024-01-11T00:41:02;80.57;;;40.90;;
57085;SDS011;42964;42.910;23.792;2024-01-11T00:46:01;125.40;;;60.33;;
57085;SDS011;42964;42.910;23.792;2024-01-11T00:51:00;124.05;;;53.45;;
57085;SDS011;42964;42.910;23.792;2024-01-11T00:55:59;103.53;;;48.40;;
57085;SDS011;42964;42.910;23.792;2024-01-11T01:00:59;107.68;;;49.92;;
57085;SDS011;42964;42.910;23.792;2024-01-11T01:05:58;108.00;;;49.47;;
57085;SDS011;42964;42.910;23.792;2024-01-11T01:10:57;127.97;;;55.13;;
57085;SDS011;42964;42.910;23.792;2024-01-11T01:15:56;82.55;;;38.55;;
57085;SDS011;42964;42.910;23.792;2024-01-11T01:20:55;82.68;;;38.22;;
57085;SDS011;42964;42.910;23.792;2024-01-11T01:25:54;70.70;;;33.30;;
57085;SDS011;42964;42.910;23.792;2024-01-11T01:30:53;51.72;;;25.67;;
57085;SDS011;42964;42.910;23.792;2024-01-11T01:35:52;54.03;;;26.55;;
57085;SDS011;42964;42.910;23.792;2024-01-11T01:40:51;41.47;;;21.38;;
57085;SDS011;42964;42.910;23.792;2024-01-11T01:45:50;45.13;;;22.60;;
57085;SDS011;42964;42.910;23.792;2024-01-11T01:50:50;57.90;;;31.42;;
57085;SDS011;42964;42.910;23.792;2024-01-11T01:55:49;87.30;;;44.25;;
57085;SDS011;42964;42.910;23.792;2024-01-11T02:00:50;86.70;;;41.22;;
57085;SDS011;42964;42.910;23.792;2024-01-11T02:05:50;86.65;;;45.80;;
57085;SDS011;42964;42.910;23.792;2024-01-11T02:10:51;79.65;;;42.53;;
57085;SDS011;42964;42.910;23.792;2024-01-11T02:15:50;85.88;;;41.90;;
57085;SDS011;42964;42.910;23.792;2024-01-11T02:20:49;71.10;;;37.25;;
57085;SDS011;42964;42.910;23.792;2024-01-11T02:25:48;91.65;;;42.63;;
57085;SDS011;42964;42.910;23.792;2024-01-11T02:30:47;94.93;;;45.63;;
57085;SDS011;42964;42.910;23.792;2024-01-11T02:35:46;69.55;;;35.10;;
57085;SDS011;42964;42.910;23.792;2024-01-11T02:40:45;60.80;;;32.63;;
57085;SDS011;42964;42.910;23.792;2024-01-11T02:45:45;60.25;;;31.95;;
57085;SDS011;42964;42.910;23.792;2024-01-11T02:50:44;62.97;;;33.00;;
57085;SDS011;42964;42.910;23.792;2024-01-11T02:55:43;86.43;;;43.35;;
57085;SDS011;42964;42.910;23.792;2024-01-11T03:00:42;101.72;;;46.55;;
57085;SDS011;42964;42.910;23.792;2024-01-11T03:05:40;94.38;;;44.30;;
57085;SDS011;42964;42.910;23.792;2024-01-11T03:10:39;73.55;;;39.47;;
57085;SDS011;42964;42.910;23.792;2024-01-11T03:15:38;74.97;;;38.55;;
57085;SDS011;42964;42.910;23.792;2024-01-11T03:20:37;69.43;;;35.67;;
57085;SDS011;42964;42.910;23.792;2024-01-11T03:25:36;62.67;;;33.45;;
57085;SDS011;42964;42.910;23.792;2024-01-11T03:30:35;74.03;;;34.42;;
57085;SDS011;42964;42.910;23.792;2024-01-11T03:35:34;63.28;;;31.50;;
57085;SDS011;42964;42.910;23.792;2024-01-11T03:40:33;69.95;;;37.00;;
57085;SDS011;42964;42.910;23.792;2024-01-11T03:45:32;52.65;;;27.33;;
57085;SDS011;42964;42.910;23.792;2024-01-11T03:50:31;52.08;;;25.17;;
57085;SDS011;42964;42.910;23.792;2024-01-11T03:55:30;51.63;;;26.58;;
57085;SDS011;42964;42.910;23.792;2024-01-11T04:00:29;61.40;;;32.65;;
57085;SDS011;42964;42.910;23.792;2024-01-11T04:05:28;89.18;;;42.00;;
57085;SDS011;42964;42.910;23.792;2024-01-11T04:10:27;76.05;;;37.90;;
57085;SDS011;42964;42.910;23.792;2024-01-11T04:15:26;67.22;;;33.78;;
57085;SDS011;42964;42.910;23.792;2024-01-11T04:20:25;74.75;;;38.45;;
57085;SDS011;42964;42.910;23.792;2024-01-11T04:25:24;65.82;;;33.50;;
57085;SDS011;42964;42.910;23.792;2024-01-11T04:30:23;67.35;;;34.95;;
57085;SDS011;42964;42.910;23.792;2024-01-11T04:35:22;70.97;;;36.67;;
57085;SDS011;42964;42.910;23.792;2024-01-11T04:40:21;76.22;;;36.22;;
57085;SDS011;42964;42.910;23.792;2024-01-11T04:45:20;114.63;;;50.10;;
57085;SDS011;42964;42.910;23.792;2024-01-11T04:50:19;62.50;;;31.15;;
57085;SDS011;42964;42.910;23.792;2024-01-11T04:55:18;59.83;;;31.85;;
57085;SDS011;42964;42.910;23.792;2024-01-11T05:00:17;54.67;;;26.73;;
57085;SDS011;42964;42.910;23.792;2024-01-11T05:05:16;65.47;;;31.92;;
57085;SDS011;42964;42.910;23.792;2024-01-11T05:10:15;67.80;;;32.58;;
57085;SDS011;42964;42.910;23.792;2024-01-11T05:15:14;50.08;;;26.05;;
57085;SDS011;42964;42.910;23.792;2024-01-11T05:20:13;74.60;;;35.45;;
57085;SDS011;42964;42.910;23.792;2024-01-11T05:25:13;69.85;;;35.90;;
57085;SDS011;42964;42.910;23.792;2024-01-11T05:30:12;64.57;;;30.85;;
57085;SDS011;42964;42.910;23.792;2024-01-11T05:35:11;56.65;;;28.85;;
57085;SDS011;42964;42.910;23.792;2024-01-11T05:40:11;65.88;;;30.48;;
57085;SDS011;42964;42.910;23.792;2024-01-11T05:45:10;59.53;;;28.92;;
57085;SDS011;42964;42.910;23.792;2024-01-11T05:50:09;69.00;;;33.58;;
57085;SDS011;42964;42.910;23.792;2024-01-11T05:55:08;83.75;;;35.63;;
57085;SDS011;42964;42.910;23.792;2024-01-11T06:00:07;80.28;;;38.42;;
57085;SDS011;42964;42.910;23.792;2024-01-11T06:05:09;100.15;;;47.65;;
57085;SDS011;42964;42.910;23.792;2024-01-11T06:10:08;92.43;;;43.60;;
57085;SDS011;42964;42.910;23.792;2024-01-11T06:15:07;94.07;;;42.95;;
57085;SDS011;42964;42.910;23.792;2024-01-11T06:20:08;65.25;;;34.35;;
57085;SDS011;42964;42.910;23.792;2024-01-11T06:25:08;70.47;;;34.85;;
57085;SDS011;42964;42.910;23.792;2024-01-11T06:30:07;73.35;;;34.67;;
57085;SDS011;42964;42.910;23.792;2024-01-11T06:35:07;82.05;;;40.13;;
57085;SDS011;42964;42.910;23.792;2024-01-11T06:40:06;69.03;;;33.97;;
57085;SDS011;42964;42.910;23.792;2024-01-11T06:45:06;58.08;;;29.23;;
57085;SDS011;42964;42.910;23.792;2024-01-11T06:50:07;124.32;;;39.47;;
57085;SDS011;42964;42.910;23.792;2024-01-11T06:55:07;74.68;;;35.10;;
57085;SDS011;42964;42.910;23.792;2024-01-11T07:00:06;99.45;;;42.58;;
57085;SDS011;42964;42.910;23.792;2024-01-11T07:05:06;93.80;;;46.53;;
57085;SDS011;42964;42.910;23.792;2024-01-11T07:10:06;82.78;;;43.72;;
57085;SDS011;42964;42.910;23.792;2024-01-11T07:15:06;75.57;;;39.00;;
57085;SDS011;42964;42.910;23.792;2024-01-11T07:20:06;66.95;;;36.88;;
57085;SDS011;42964;42.910;23.792;2024-01-11T07:25:06;85.78;;;43.13;;
57085;SDS011;42964;42.910;23.792;2024-01-11T07:30:06;110.18;;;57.67;;
57085;SDS011;42964;42.910;23.792;2024-01-11T07:35:05;100.45;;;51.40;;
57085;SDS011;42964;42.910;23.792;2024-01-11T07:40:05;105.22;;;54.17;;
57085;SDS011;42964;42.910;23.792;2024-01-11T07:45:09;104.10;;;52.78;;
57085;SDS011;42964;42.910;23.792;2024-01-11T07:50:11;89.47;;;49.17;;
57085;SDS011;42964;42.910;23.792;2024-01-11T07:55:10;110.32;;;60.55;;
57085;SDS011;42964;42.910;23.792;2024-01-11T08:00:11;113.65;;;59.47;;
57085;SDS011;42964;42.910;23.792;2024-01-11T08:05:10;116.45;;;60.28;;
57085;SDS011;42964;42.910;23.792;2024-01-11T08:10:09;122.35;;;66.43;;
57085;SDS011;42964;42.910;23.792;2024-01-11T08:15:08;169.35;;;94.30;;
57085;SDS011;42964;42.910;23.792;2024-01-11T08:20:14;162.93;;;85.78;;
57085;SDS011;42964;42.910;23.792;2024-01-11T08:25:13;163.07;;;86.55;;
57085;SDS011;42964;42.910;23.792;2024-01-11T08:30:12;198.70;;;110.25;;
57085;SDS011;42964;42.910;23.792;2024-01-11T08:35:11;154.98;;;86.65;;
57085;SDS011;42964;42.910;23.792;2024-01-11T08:40:10;158.38;;;87.50;;
57085;SDS011;42964;42.910;23.792;2024-01-11T08:45:10;151.90;;;83.32;;
57085;SDS011;42964;42.910;23.792;2024-01-11T08:50:11;139.60;;;75.47;;
57085;SDS011;42964;42.910;23.792;2024-01-11T08:55:11;192.70;;;104.60;;
57085;SDS011;42964;42.910;23.792;2024-01-11T09:00:11;164.88;;;90.68;;
57085;SDS011;42964;42.910;23.792;2024-01-11T09:05:11;130.55;;;73.65;;
57085;SDS011;42964;42.910;23.792;2024-01-11T09:10:10;112.10;;;64.35;;
57085;SDS011;42964;42.910;23.792;2024-01-11T09:15:12;103.63;;;57.97;;
57085;SDS011;42964;42.910;23.792;2024-01-11T09:20:11;100.35;;;59.75;;
57085;SDS011;42964;42.910;23.792;2024-01-11T09:25:12;104.80;;;61.58;;
57085;SDS011;42964;42.910;23.792;2024-01-11T09:35:10;125.67;;;67.60;;
57085;SDS011;42964;42.910;23.792;2024-01-11T09:40:09;131.77;;;76.60;;
57085;SDS011;42964;42.910;23.792;2024-01-11T09:45:13;136.98;;;75.53;;
57085;SDS011;42964;42.910;23.792;2024-01-11T09:50:15;132.02;;;72.82;;
57085;SDS011;42964;42.910;23.792;2024-01-11T09:55:18;127.85;;;74.55;;
57085;SDS011;42964;42.910;23.792;2024-01-11T10:00:22;195.27;;;102.05;;
57085;SDS011;42964;42.910;23.792;2024-01-11T10:05:22;152.45;;;83.65;;
57085;SDS011;42964;42.910;23.792;2024-01-11T10:10:21;129.27;;;75.20;;
57085;SDS011;42964;42.910;23.792;2024-01-11T10:20:22;124.22;;;72.90;;
57085;SDS011;42964;42.910;23.792;2024-01-11T10:25:22;124.10;;;72.18;;
57085;SDS011;42964;42.910;23.792;2024-01-11T10:30:21;129.48;;;74.38;;
57085;SDS011;42964;42.910;23.792;2024-01-11T10:35:22;116.47;;;69.28;;
57085;SDS011;42964;42.910;23.792;2024-01-11T10:40:21;113.13;;;63.38;;
57085;SDS011;42964;42.910;23.792;2024-01-11T10:45:23;102.07;;;60.05;;
57085;SDS011;42964;42.910;23.792;2024-01-11T10:50:24;107.85;;;59.67;;
57085;SDS011;42964;42.910;23.792;2024-01-11T10:55:24;110.18;;;65.47;;
57085;SDS011;42964;42.910;23.792;2024-01-11T11:00:24;174.63;;;107.55;;
57085;SDS011;42964;42.910;23.792;2024-01-11T11:05:23;106.90;;;64.18;;
57085;SDS011;42964;42.910;23.792;2024-01-11T11:10:23;100.72;;;60.83;;
57085;SDS011;42964;42.910;23.792;2024-01-11T11:15:24;104.40;;;66.75;;
57085;SDS011;42964;42.910;23.792;2024-01-11T11:20:26;100.93;;;51.28;;
57085;SDS011;42964;42.910;23.792;2024-01-11T11:25:26;90.68;;;51.83;;
57085;SDS011;42964;42.910;23.792;2024-01-11T11:30:28;88.97;;;55.40;;
57085;SDS011;42964;42.910;23.792;2024-01-11T11:35:27;78.18;;;46.60;;
57085;SDS011;42964;42.910;23.792;2024-01-11T11:40:32;65.40;;;40.08;;
57085;SDS011;42964;42.910;23.792;2024-01-11T11:45:36;64.97;;;38.08;;
57085;SDS011;42964;42.910;23.792;2024-01-11T11:50:36;62.55;;;38.83;;
57085;SDS011;42964;42.910;23.792;2024-01-11T11:55:35;64.00;;;35.78;;
57085;SDS011;42964;42.910;23.792;2024-01-11T12:00:35;59.08;;;36.92;;
57085;SDS011;42964;42.910;23.792;2024-01-11T12:05:37;59.88;;;37.55;;
57085;SDS011;42964;42.910;23.792;2024-01-11T12:10:36;53.55;;;31.73;;
57085;SDS011;42964;42.910;23.792;2024-01-11T12:15:35;42.08;;;27.45;;
57085;SDS011;42964;42.910;23.792;2024-01-11T12:20:34;52.05;;;29.83;;
57085;SDS011;42964;42.910;23.792;2024-01-11T12:25:34;58.78;;;34.20;;
57085;SDS011;42964;42.910;23.792;2024-01-11T12:30:34;69.88;;;41.15;;
57085;SDS011;42964;42.910;23.792;2024-01-11T12:35:33;90.75;;;53.30;;
57085;SDS011;42964;42.910;23.792;2024-01-11T12:40:32;78.18;;;49.65;;
57085;SDS011;42964;42.910;23.792;2024-01-11T12:45:34;62.97;;;39.15;;
57085;SDS011;42964;42.910;23.792;2024-01-11T12:50:33;34.42;;;21.98;;
57085;SDS011;42964;42.910;23.792;2024-01-11T12:55:33;30.75;;;20.40;;
57085;SDS011;42964;42.910;23.792;2024-01-11T13:00:33;23.63;;;16.58;;
57085;SDS011;42964;42.910;23.792;2024-01-11T13:05:32;18.17;;;11.32;;
57085;SDS011;42964;42.910;23.792;2024-01-11T13:10:34;19.23;;;12.27;;
57085;SDS011;42964;42.910;23.792;2024-01-11T13:15:34;19.08;;;12.88;;
57085;SDS011;42964;42.910;23.792;2024-01-11T13:20:34;38.22;;;23.55;;
57085;SDS011;42964;42.910;23.792;2024-01-11T13:25:33;32.70;;;20.15;;
57085;SDS011;42964;42.910;23.792;2024-01-11T13:30:32;27.55;;;17.38;;
57085;SDS011;42964;42.910;23.792;2024-01-11T13:35:31;28.77;;;17.92;;
57085;SDS011;42964;42.910;23.792;2024-01-11T13:40:30;34.13;;;19.88;;
57085;SDS011;42964;42.910;23.792;2024-01-11T13:45:30;35.97;;;21.75;;
57085;SDS011;42964;42.910;23.792;2024-01-11T13:50:29;40.20;;;24.70;;
57085;SDS011;42964;42.910;23.792;2024-01-11T13:55:28;39.15;;;25.10;;
57085;SDS011;42964;42.910;23.792;2024-01-11T14:00:29;32.75;;;22.30;;
57085;SDS011;42964;42.910;23.792;2024-01-11T14:05:28;47.65;;;31.65;;
57085;SDS011;42964;42.910;23.792;2024-01-11T14:10:27;50.38;;;35.17;;
57085;SDS011;42964;42.910;23.792;2024-01-11T14:15:26;55.33;;;34.25;;
57085;SDS011;42964;42.910;23.792;2024-01-11T14:20:26;50.28;;;29.42;;
57085;SDS011;42964;42.910;23.792;2024-01-11T14:25:25;28.38;;;19.23;;
57085;SDS011;42964;42.910;23.792;2024-01-11T14:30:24;37.45;;;23.83;;
57085;SDS011;42964;42.910;23.792;2024-01-11T14:35:23;40.45;;;24.48;;
57085;SDS011;42964;42.910;23.792;2024-01-11T14:40:22;85.63;;;50.50;;
57085;SDS011;42964;42.910;23.792;2024-01-11T14:45:22;59.55;;;35.60;;
57085;SDS011;42964;42.910;23.792;2024-01-11T14:50:21;53.60;;;31.85;;
57085;SDS011;42964;42.910;23.792;2024-01-11T14:55:20;54.30;;;31.30;;
57085;SDS011;42964;42.910;23.792;2024-01-11T15:00:19;66.80;;;39.15;;
57085;SDS011;42964;42.910;23.792;2024-01-11T15:05:18;83.82;;;49.40;;
57085;SDS011;42964;42.910;23.792;2024-01-11T15:10:17;91.68;;;54.22;;
57085;SDS011;42964;42.910;23.792;2024-01-11T15:15:16;94.13;;;57.28;;
57085;SDS011;42964;42.910;23.792;2024-01-11T15:20:17;85.88;;;51.47;;
57085;SDS011;42964;42.910;23.792;2024-01-11T15:25:16;85.53;;;51.35;;
57085;SDS011;42964;42.910;23.792;2024-01-11T15:30:17;95.00;;;56.65;;
57085;SDS011;42964;42.910;23.792;2024-01-11T15:35:16;84.80;;;54.22;;
57085;SDS011;42964;42.910;23.792;2024-01-11T15:40:15;118.43;;;69.45;;
57085;SDS011;42964;42.910;23.792;2024-01-11T15:45:14;128.38;;;73.38;;
57085;SDS011;42964;42.910;23.792;2024-01-11T15:50:13;148.13;;;82.30;;
57085;SDS011;42964;42.910;23.792;2024-01-11T15:55:12;168.75;;;94.97;;
57085;SDS011;42964;42.910;23.792;2024-01-11T16:05:10;150.38;;;89.85;;
57085;SDS011;42964;42.910;23.792;2024-01-11T16:10:09;152.05;;;90.25;;
57085;SDS011;42964;42.910;23.792;2024-01-11T16:20:08;172.40;;;97.07;;
57085;SDS011;42964;42.910;23.792;2024-01-11T16:25:09;157.43;;;91.05;;
57085;SDS011;42964;42.910;23.792;2024-01-11T16:30:08;150.43;;;85.38;;
57085;SDS011;42964;42.910;23.792;2024-01-11T16:35:08;123.40;;;73.03;;
57085;SDS011;42964;42.910;23.792;2024-01-11T16:40:07;173.23;;;100.35;;
57085;SDS011;42964;42.910;23.792;2024-01-11T16:45:08;133.43;;;81.07;;
57085;SDS011;42964;42.910;23.792;2024-01-11T16:50:08;134.15;;;79.38;;
57085;SDS011;42964;42.910;23.792;2024-01-11T17:00:06;150.25;;;84.07;;
57085;SDS011;42964;42.910;23.792;2024-01-11T17:10:04;126.38;;;68.35;;
57085;SDS011;42964;42.910;23.792;2024-01-11T17:20:02;136.43;;;79.28;;
57085;SDS011;42964;42.910;23.792;2024-01-11T17:25:02;147.25;;;78.82;;
57085;SDS011;42964;42.910;23.792;2024-01-11T17:30:03;131.52;;;69.50;;
57085;SDS011;42964;42.910;23.792;2024-01-11T17:35:02;139.45;;;74.07;;
57085;SDS011;42964;42.910;23.792;2024-01-11T17:40:02;73.72;;;41.83;;
57085;SDS011;42964;42.910;23.792;2024-01-11T17:50:00;72.45;;;40.05;;
57085;SDS011;42964;42.910;23.792;2024-01-11T17:55:00;92.13;;;50.70;;
57085;SDS011;42964;42.910;23.792;2024-01-11T18:00:00;71.45;;;45.42;;
57085;SDS011;42964;42.910;23.792;2024-01-11T18:09:58;63.90;;;36.00;;
57085;SDS011;42964;42.910;23.792;2024-01-11T18:14:57;78.60;;;44.55;;
57085;SDS011;42964;42.910;23.792;2024-01-11T18:24:55;144.30;;;81.95;;
57085;SDS011;42964;42.910;23.792;2024-01-11T18:29:55;155.77;;;90.97;;
57085;SDS011;42964;42.910;23.792;2024-01-11T18:34:54;168.50;;;93.85;;
57085;SDS011;42964;42.910;23.792;2024-01-11T18:39:54;242.00;;;132.70;;
57085;SDS011;42964;42.910;23.792;2024-01-11T18:49:52;215.53;;;119.57;;
57085;SDS011;42964;42.910;23.792;2024-01-11T18:59:50;142.57;;;79.63;;
57085;SDS011;42964;42.910;23.792;2024-01-11T19:04:51;128.52;;;73.88;;
57085;SDS011;42964;42.910;23.792;2024-01-11T19:09:51;142.43;;;79.60;;
57085;SDS011;42964;42.910;23.792;2024-01-11T19:14:50;150.15;;;87.50;;
57085;SDS011;42964;42.910;23.792;2024-01-11T19:19:49;148.40;;;86.50;;
57085;SDS011;42964;42.910;23.792;2024-01-11T19:24:48;177.00;;;97.85;;
57085;SDS011;42964;42.910;23.792;2024-01-11T19:29:47;177.57;;;99.97;;
57085;SDS011;42964;42.910;23.792;2024-01-11T19:34:46;356.48;;;179.98;;
57085;SDS011;42964;42.910;23.792;2024-01-11T19:39:45;237.23;;;136.52;;
57085;SDS011;42964;42.910;23.792;2024-01-11T19:44:46;235.13;;;134.40;;
57085;SDS011;42964;42.910;23.792;2024-01-11T19:49:45;227.32;;;123.25;;
57085;SDS011;42964;42.910;23.792;2024-01-11T19:59:43;171.98;;;96.10;;
57085;SDS011;42964;42.910;23.792;2024-01-11T20:09:40;113.82;;;66.50;;
57085;SDS011;42964;42.910;23.792;2024-01-11T20:14:39;113.78;;;59.08;;
57085;SDS011;42964;42.910;23.792;2024-01-11T20:19:38;79.15;;;47.13;;
57085;SDS011;42964;42.910;23.792;2024-01-11T20:29:37;107.40;;;56.03;;
57085;SDS011;42964;42.910;23.792;2024-01-11T20:34:36;129.60;;;71.25;;
57085;SDS011;42964;42.910;23.792;2024-01-11T20:44:36;140.63;;;77.47;;
57085;SDS011;42964;42.910;23.792;2024-01-11T20:49:35;136.38;;;77.65;;
57085;SDS011;42964;42.910;23.792;2024-01-11T20:59:36;195.98;;;104.72;;
57085;SDS011;42964;42.910;23.792;2024-01-11T21:04:36;215.18;;;115.75;;
57085;SDS011;42964;42.910;23.792;2024-01-11T21:14:33;270.50;;;138.65;;
57085;SDS011;42964;42.910;23.792;2024-01-11T21:24:31;229.77;;;119.33;;
57085;SDS011;42964;42.910;23.792;2024-01-11T21:34:29;267.20;;;135.95;;
57085;SDS011;42964;42.910;23.792;2024-01-11T21:44:26;366.42;;;185.85;;
57085;SDS011;42964;42.910;23.792;2024-01-11T21:54:24;215.30;;;113.50;;
57085;SDS011;42964;42.910;23.792;2024-01-11T22:04:22;176.63;;;91.73;;
57085;SDS011;42964;42.910;23.792;2024-01-11T22:14:20;119.33;;;66.47;;
57085;SDS011;42964;42.910;23.792;2024-01-11T22:24:18;224.93;;;112.27;;
57085;SDS011;42964;42.910;23.792;2024-01-11T22:34:15;213.43;;;113.27;;
57085;SDS011;42964;42.910;23.792;2024-01-11T22:39:15;145.70;;;76.97;;
57085;SDS011;42964;42.910;23.792;2024-01-11T22:49:12;118.88;;;61.50;;
57085;SDS011;42964;42.910;23.792;2024-01-11T22:59:10;110.53;;;58.10;;
57085;SDS011;42964;42.910;23.792;2024-01-11T23:04:10;114.07;;;58.30;;
57085;SDS011;42964;42.910;23.792;2024-01-11T23:14:10;85.65;;;44.55;;
57085;SDS011;42964;42.910;23.792;2024-01-11T23:19:11;73.03;;;39.40;;
57085;SDS011;42964;42.910;23.792;2024-01-11T23:24:10;71.20;;;40.17;;
57085;SDS011;42964;42.910;23.792;2024-01-11T23:29:09;60.95;;;35.88;;
57085;SDS011;42964;42.910;23.792;2024-01-11T23:34:08;73.28;;;41.05;;
57085;SDS011;42964;42.910;23.792;2024-01-11T23:44:06;79.43;;;41.50;;
57085;SDS011;42964;42.910;23.792;2024-01-11T23:49:05;104.95;;;53.33;;
57085;SDS011;42964;42.910;23.792;2024-01-11T23:59:03;151.47;;;77.53;;
